sensor_id;sensor_type;location;lat;lon;timestamp;P1;durP1;ratioP1;P2;durP2;ratioP2
51792;SDS011;37850;53.178;6.376;2022-09-09T00:02:05;10.82;;;6.00;;
51792;SDS011;37850;53.178;6.376;2022-09-09T00:04:42;12.23;;;6.60;;
51792;SDS011;37850;53.178;6.376;2022-09-09T00:10:34;18.27;;;6.93;;
51792;SDS011;37850;53.178;6.376;2022-09-09T00:13:13;11.55;;;6.57;;
51792;SDS011;37850;53.178;6.376;2022-09-09T00:18:32;11.88;;;6.97;;
51792;SDS011;37850;53.178;6.376;2022-09-09T00:21:03;16.33;;;7.60;;
51792;SDS011;37850;53.178;6.376;2022-09-09T00:28:58;11.57;;;6.13;;
51792;SDS011;37850;53.178;6.376;2022-09-09T00:31:29;15.50;;;6.68;;
51792;SDS011;37850;53.178;6.376;2022-09-09T00:34:05;9.77;;;6.28;;
51792;SDS011;37850;53.178;6.376;2022-09-09T00:36:36;11.10;;;6.30;;
51792;SDS011;37850;53.178;6.376;2022-09-09T00:39:03;11.63;;;6.70;;
51792;SDS011;37850;53.178;6.376;2022-09-09T00:41:35;13.60;;;6.85;;
51792;SDS011;37850;53.178;6.376;2022-09-09T00:44:32;14.80;;;6.90;;
51792;SDS011;37850;53.178;6.376;2022-09-09T00:58:05;9.20;;;6.20;;
51792;SDS011;37850;53.178;6.376;2022-09-09T01:00:41;10.57;;;6.30;;
51792;SDS011;37850;53.178;6.376;2022-09-09T01:08:48;8.63;;;6.68;;
51792;SDS011;37850;53.178;6.376;2022-09-09T01:17:04;9.75;;;5.90;;
51792;SDS011;37850;53.178;6.376;2022-09-09T01:22:22;12.07;;;6.25;;
51792;SDS011;37850;53.178;6.376;2022-09-09T01:27:42;16.55;;;6.90;;
51792;SDS011;37850;53.178;6.376;2022-09-09T01:30:12;11.02;;;6.88;;
51792;SDS011;37850;53.178;6.376;2022-09-09T01:32:45;16.65;;;7.82;;
51792;SDS011;37850;53.178;6.376;2022-09-09T01:35:33;9.35;;;6.30;;
51792;SDS011;37850;53.178;6.376;2022-09-09T01:38:04;9.45;;;5.82;;
51792;SDS011;37850;53.178;6.376;2022-09-09T01:40:30;13.02;;;5.97;;
51792;SDS011;37850;53.178;6.376;2022-09-09T01:42:55;10.02;;;5.72;;
51792;SDS011;37850;53.178;6.376;2022-09-09T01:45:21;11.98;;;6.63;;
51792;SDS011;37850;53.178;6.376;2022-09-09T01:47:49;9.60;;;6.10;;
51792;SDS011;37850;53.178;6.376;2022-09-09T01:50:17;8.95;;;6.43;;
51792;SDS011;37850;53.178;6.376;2022-09-09T01:52:43;12.40;;;6.85;;
51792;SDS011;37850;53.178;6.376;2022-09-09T01:55:13;13.05;;;6.05;;
51792;SDS011;37850;53.178;6.376;2022-09-09T01:57:43;9.75;;;5.60;;
51792;SDS011;37850;53.178;6.376;2022-09-09T02:00:26;12.43;;;6.15;;
51792;SDS011;37850;53.178;6.376;2022-09-09T02:03:27;11.50;;;6.53;;
51792;SDS011;37850;53.178;6.376;2022-09-09T02:05:57;10.57;;;6.25;;
51792;SDS011;37850;53.178;6.376;2022-09-09T02:11:15;10.63;;;7.47;;
51792;SDS011;37850;53.178;6.376;2022-09-09T02:13:44;9.65;;;6.88;;
51792;SDS011;37850;53.178;6.376;2022-09-09T02:19:01;15.88;;;8.85;;
51792;SDS011;37850;53.178;6.376;2022-09-09T02:21:34;13.73;;;7.63;;
51792;SDS011;37850;53.178;6.376;2022-09-09T02:24:02;13.07;;;8.10;;
51792;SDS011;37850;53.178;6.376;2022-09-09T02:26:31;14.05;;;9.13;;
51792;SDS011;37850;53.178;6.376;2022-09-09T02:29:01;12.68;;;7.70;;
51792;SDS011;37850;53.178;6.376;2022-09-09T02:31:29;14.18;;;8.80;;
51792;SDS011;37850;53.178;6.376;2022-09-09T02:33:58;16.65;;;9.00;;
51792;SDS011;37850;53.178;6.376;2022-09-09T02:36:26;16.48;;;9.07;;
51792;SDS011;37850;53.178;6.376;2022-09-09T02:38:55;16.02;;;8.52;;
51792;SDS011;37850;53.178;6.376;2022-09-09T02:41:30;15.07;;;8.85;;
51792;SDS011;37850;53.178;6.376;2022-09-09T02:43:59;18.45;;;9.18;;
51792;SDS011;37850;53.178;6.376;2022-09-09T02:52:30;14.48;;;9.30;;
51792;SDS011;37850;53.178;6.376;2022-09-09T02:55:20;17.27;;;9.70;;
51792;SDS011;37850;53.178;6.376;2022-09-09T02:57:55;14.43;;;8.75;;
51792;SDS011;37850;53.178;6.376;2022-09-09T03:00:27;19.02;;;9.07;;
51792;SDS011;37850;53.178;6.376;2022-09-09T03:02:54;12.30;;;9.07;;
51792;SDS011;37850;53.178;6.376;2022-09-09T03:05:20;20.10;;;8.85;;
51792;SDS011;37850;53.178;6.376;2022-09-09T03:07:46;14.95;;;9.38;;
51792;SDS011;37850;53.178;6.376;2022-09-09T03:10:12;13.45;;;9.63;;
51792;SDS011;37850;53.178;6.376;2022-09-09T03:12:38;17.10;;;9.73;;
51792;SDS011;37850;53.178;6.376;2022-09-09T03:15:05;18.30;;;9.63;;
51792;SDS011;37850;53.178;6.376;2022-09-09T03:17:33;19.13;;;9.45;;
51792;SDS011;37850;53.178;6.376;2022-09-09T03:19:59;16.90;;;9.93;;
51792;SDS011;37850;53.178;6.376;2022-09-09T03:22:25;16.98;;;9.27;;
51792;SDS011;37850;53.178;6.376;2022-09-09T03:24:51;17.58;;;10.27;;
51792;SDS011;37850;53.178;6.376;2022-09-09T03:27:17;16.25;;;9.63;;
51792;SDS011;37850;53.178;6.376;2022-09-09T03:29:44;15.40;;;9.70;;
51792;SDS011;37850;53.178;6.376;2022-09-09T03:32:10;15.32;;;9.48;;
51792;SDS011;37850;53.178;6.376;2022-09-09T03:34:37;19.98;;;10.40;;
51792;SDS011;37850;53.178;6.376;2022-09-09T03:37:05;16.30;;;8.65;;
51792;SDS011;37850;53.178;6.376;2022-09-09T03:39:31;16.05;;;9.02;;
51792;SDS011;37850;53.178;6.376;2022-09-09T03:41:56;13.32;;;8.52;;
51792;SDS011;37850;53.178;6.376;2022-09-09T03:44:22;16.10;;;8.50;;
51792;SDS011;37850;53.178;6.376;2022-09-09T03:46:48;13.27;;;8.18;;
51792;SDS011;37850;53.178;6.376;2022-09-09T03:49:14;12.68;;;7.53;;
51792;SDS011;37850;53.178;6.376;2022-09-09T03:51:40;12.85;;;7.30;;
51792;SDS011;37850;53.178;6.376;2022-09-09T03:54:07;13.45;;;7.03;;
51792;SDS011;37850;53.178;6.376;2022-09-09T03:56:35;15.45;;;7.60;;
51792;SDS011;37850;53.178;6.376;2022-09-09T03:59:01;14.43;;;7.25;;
51792;SDS011;37850;53.178;6.376;2022-09-09T04:01:28;13.70;;;6.80;;
51792;SDS011;37850;53.178;6.376;2022-09-09T04:03:54;10.40;;;7.00;;
51792;SDS011;37850;53.178;6.376;2022-09-09T04:06:26;11.75;;;6.97;;
51792;SDS011;37850;53.178;6.376;2022-09-09T04:08:52;13.32;;;7.53;;
51792;SDS011;37850;53.178;6.376;2022-09-09T04:11:17;12.23;;;6.65;;
51792;SDS011;37850;53.178;6.376;2022-09-09T04:13:43;10.73;;;6.15;;
51792;SDS011;37850;53.178;6.376;2022-09-09T04:16:10;12.57;;;6.93;;
51792;SDS011;37850;53.178;6.376;2022-09-09T04:18:37;12.13;;;6.15;;
51792;SDS011;37850;53.178;6.376;2022-09-09T04:21:03;10.13;;;6.45;;
51792;SDS011;37850;53.178;6.376;2022-09-09T04:23:30;10.48;;;6.35;;
51792;SDS011;37850;53.178;6.376;2022-09-09T04:25:56;9.48;;;5.80;;
51792;SDS011;37850;53.178;6.376;2022-09-09T04:28:24;13.55;;;6.22;;
51792;SDS011;37850;53.178;6.376;2022-09-09T04:30:52;13.18;;;6.40;;
51792;SDS011;37850;53.178;6.376;2022-09-09T04:33:24;10.32;;;5.90;;
51792;SDS011;37850;53.178;6.376;2022-09-09T04:38:19;9.98;;;6.00;;
51792;SDS011;37850;53.178;6.376;2022-09-09T04:40:47;14.85;;;7.30;;
51792;SDS011;37850;53.178;6.376;2022-09-09T04:43:14;10.13;;;6.55;;
51792;SDS011;37850;53.178;6.376;2022-09-09T04:45:41;12.07;;;6.35;;
51792;SDS011;37850;53.178;6.376;2022-09-09T04:48:07;14.93;;;6.68;;
51792;SDS011;37850;53.178;6.376;2022-09-09T04:50:34;12.73;;;6.18;;
51792;SDS011;37850;53.178;6.376;2022-09-09T04:53:03;11.73;;;6.97;;
51792;SDS011;37850;53.178;6.376;2022-09-09T04:55:30;15.02;;;7.13;;
51792;SDS011;37850;53.178;6.376;2022-09-09T04:57:56;11.60;;;6.53;;
51792;SDS011;37850;53.178;6.376;2022-09-09T05:00:23;9.85;;;5.93;;
51792;SDS011;37850;53.178;6.376;2022-09-09T05:02:49;14.25;;;7.32;;
51792;SDS011;37850;53.178;6.376;2022-09-09T05:05:16;14.23;;;6.85;;
51792;SDS011;37850;53.178;6.376;2022-09-09T05:07:41;13.68;;;7.25;;
51792;SDS011;37850;53.178;6.376;2022-09-09T05:10:08;17.25;;;8.18;;
51792;SDS011;37850;53.178;6.376;2022-09-09T05:12:35;12.68;;;7.78;;
51792;SDS011;37850;53.178;6.376;2022-09-09T05:15:01;15.55;;;7.75;;
51792;SDS011;37850;53.178;6.376;2022-09-09T05:17:27;12.20;;;8.02;;
51792;SDS011;37850;53.178;6.376;2022-09-09T05:19:52;16.55;;;7.60;;
51792;SDS011;37850;53.178;6.376;2022-09-09T05:22:21;15.10;;;8.13;;
51792;SDS011;37850;53.178;6.376;2022-09-09T05:24:50;12.80;;;7.90;;
51792;SDS011;37850;53.178;6.376;2022-09-09T05:27:17;11.93;;;7.38;;
51792;SDS011;37850;53.178;6.376;2022-09-09T05:29:44;13.52;;;7.90;;
51792;SDS011;37850;53.178;6.376;2022-09-09T05:32:11;15.07;;;8.48;;
51792;SDS011;37850;53.178;6.376;2022-09-09T05:34:36;12.63;;;8.73;;
51792;SDS011;37850;53.178;6.376;2022-09-09T05:37:02;14.57;;;8.13;;
51792;SDS011;37850;53.178;6.376;2022-09-09T05:39:29;14.65;;;8.80;;
51792;SDS011;37850;53.178;6.376;2022-09-09T05:41:55;16.52;;;8.32;;
51792;SDS011;37850;53.178;6.376;2022-09-09T05:44:21;15.27;;;8.80;;
51792;SDS011;37850;53.178;6.376;2022-09-09T05:46:49;14.13;;;9.25;;
51792;SDS011;37850;53.178;6.376;2022-09-09T05:49:14;15.02;;;9.02;;
51792;SDS011;37850;53.178;6.376;2022-09-09T05:51:40;17.30;;;9.65;;
51792;SDS011;37850;53.178;6.376;2022-09-09T05:54:08;18.25;;;9.35;;
51792;SDS011;37850;53.178;6.376;2022-09-09T05:56:34;13.18;;;9.50;;
51792;SDS011;37850;53.178;6.376;2022-09-09T05:58:59;14.68;;;9.63;;
51792;SDS011;37850;53.178;6.376;2022-09-09T06:01:30;13.40;;;9.63;;
51792;SDS011;37850;53.178;6.376;2022-09-09T06:03:57;15.38;;;10.10;;
51792;SDS011;37850;53.178;6.376;2022-09-09T06:06:24;14.98;;;9.65;;
51792;SDS011;37850;53.178;6.376;2022-09-09T06:08:52;16.55;;;10.07;;
51792;SDS011;37850;53.178;6.376;2022-09-09T06:11:26;13.30;;;9.10;;
51792;SDS011;37850;53.178;6.376;2022-09-09T06:13:53;16.27;;;9.90;;
51792;SDS011;37850;53.178;6.376;2022-09-09T06:16:23;13.75;;;8.88;;
51792;SDS011;37850;53.178;6.376;2022-09-09T06:18:51;18.05;;;10.75;;
51792;SDS011;37850;53.178;6.376;2022-09-09T06:21:40;15.02;;;9.32;;
51792;SDS011;37850;53.178;6.376;2022-09-09T06:24:06;15.63;;;9.55;;
51792;SDS011;37850;53.178;6.376;2022-09-09T06:26:33;17.10;;;9.45;;
51792;SDS011;37850;53.178;6.376;2022-09-09T06:29:01;14.13;;;8.95;;
51792;SDS011;37850;53.178;6.376;2022-09-09T06:31:29;15.30;;;9.18;;
51792;SDS011;37850;53.178;6.376;2022-09-09T06:33:56;15.13;;;9.80;;
51792;SDS011;37850;53.178;6.376;2022-09-09T06:36:23;15.55;;;9.43;;
51792;SDS011;37850;53.178;6.376;2022-09-09T06:38:54;14.80;;;9.00;;
51792;SDS011;37850;53.178;6.376;2022-09-09T06:41:21;13.93;;;8.88;;
51792;SDS011;37850;53.178;6.376;2022-09-09T06:43:51;14.93;;;9.18;;
51792;SDS011;37850;53.178;6.376;2022-09-09T06:46:18;12.63;;;8.32;;
51792;SDS011;37850;53.178;6.376;2022-09-09T06:48:46;13.48;;;7.85;;
51792;SDS011;37850;53.178;6.376;2022-09-09T06:51:15;14.73;;;8.25;;
51792;SDS011;37850;53.178;6.376;2022-09-09T06:53:43;14.90;;;9.07;;
51792;SDS011;37850;53.178;6.376;2022-09-09T06:58:40;12.77;;;8.25;;
51792;SDS011;37850;53.178;6.376;2022-09-09T07:01:08;12.75;;;7.72;;
51792;SDS011;37850;53.178;6.376;2022-09-09T07:03:34;14.82;;;8.43;;
51792;SDS011;37850;53.178;6.376;2022-09-09T07:06:01;15.35;;;8.27;;
51792;SDS011;37850;53.178;6.376;2022-09-09T07:08:27;13.23;;;7.85;;
51792;SDS011;37850;53.178;6.376;2022-09-09T07:10:53;11.27;;;7.72;;
51792;SDS011;37850;53.178;6.376;2022-09-09T07:13:26;13.88;;;8.98;;
51792;SDS011;37850;53.178;6.376;2022-09-09T07:15:52;14.57;;;9.18;;
51792;SDS011;37850;53.178;6.376;2022-09-09T07:18:19;13.55;;;8.27;;
51792;SDS011;37850;53.178;6.376;2022-09-09T07:20:55;16.10;;;8.30;;
51792;SDS011;37850;53.178;6.376;2022-09-09T07:23:22;12.68;;;6.90;;
51792;SDS011;37850;53.178;6.376;2022-09-09T07:25:49;16.17;;;7.97;;
51792;SDS011;37850;53.178;6.376;2022-09-09T07:28:15;13.63;;;7.47;;
51792;SDS011;37850;53.178;6.376;2022-09-09T07:30:42;10.98;;;8.00;;
51792;SDS011;37850;53.178;6.376;2022-09-09T07:33:08;11.23;;;7.53;;
51792;SDS011;37850;53.178;6.376;2022-09-09T07:35:34;11.98;;;7.93;;
51792;SDS011;37850;53.178;6.376;2022-09-09T07:38:02;11.88;;;7.40;;
51792;SDS011;37850;53.178;6.376;2022-09-09T07:40:29;10.50;;;7.30;;
51792;SDS011;37850;53.178;6.376;2022-09-09T07:42:55;11.82;;;7.80;;
51792;SDS011;37850;53.178;6.376;2022-09-09T07:45:21;10.98;;;7.35;;
51792;SDS011;37850;53.178;6.376;2022-09-09T07:47:46;9.93;;;6.65;;
51792;SDS011;37850;53.178;6.376;2022-09-09T07:50:13;12.45;;;7.03;;
51792;SDS011;37850;53.178;6.376;2022-09-09T07:52:40;17.25;;;7.55;;
51792;SDS011;37850;53.178;6.376;2022-09-09T07:55:06;11.30;;;6.65;;
51792;SDS011;37850;53.178;6.376;2022-09-09T07:57:32;11.60;;;6.90;;
51792;SDS011;37850;53.178;6.376;2022-09-09T07:59:57;14.40;;;6.40;;
51792;SDS011;37850;53.178;6.376;2022-09-09T08:02:24;9.73;;;6.20;;
51792;SDS011;37850;53.178;6.376;2022-09-09T08:04:50;11.15;;;6.65;;
51792;SDS011;37850;53.178;6.376;2022-09-09T08:07:17;11.98;;;6.03;;
51792;SDS011;37850;53.178;6.376;2022-09-09T08:09:42;14.95;;;6.40;;
51792;SDS011;37850;53.178;6.376;2022-09-09T08:12:09;13.70;;;6.45;;
51792;SDS011;37850;53.178;6.376;2022-09-09T08:14:38;11.35;;;6.40;;
51792;SDS011;37850;53.178;6.376;2022-09-09T08:17:05;11.13;;;6.05;;
51792;SDS011;37850;53.178;6.376;2022-09-09T08:19:31;11.13;;;6.43;;
51792;SDS011;37850;53.178;6.376;2022-09-09T08:22:00;8.88;;;5.07;;
51792;SDS011;37850;53.178;6.376;2022-09-09T08:24:27;14.52;;;6.60;;
51792;SDS011;37850;53.178;6.376;2022-09-09T08:26:54;11.38;;;5.82;;
51792;SDS011;37850;53.178;6.376;2022-09-09T08:29:21;9.38;;;5.47;;
51792;SDS011;37850;53.178;6.376;2022-09-09T08:31:48;12.18;;;5.65;;
51792;SDS011;37850;53.178;6.376;2022-09-09T08:34:16;10.52;;;5.72;;
51792;SDS011;37850;53.178;6.376;2022-09-09T08:36:45;10.38;;;5.20;;
51792;SDS011;37850;53.178;6.376;2022-09-09T08:39:12;9.75;;;5.45;;
51792;SDS011;37850;53.178;6.376;2022-09-09T08:41:43;12.30;;;5.32;;
51792;SDS011;37850;53.178;6.376;2022-09-09T08:52:27;9.88;;;4.97;;
51792;SDS011;37850;53.178;6.376;2022-09-09T08:55:15;11.73;;;5.40;;
51792;SDS011;37850;53.178;6.376;2022-09-09T08:57:49;11.93;;;5.25;;
51792;SDS011;37850;53.178;6.376;2022-09-09T09:00:19;10.75;;;4.70;;
51792;SDS011;37850;53.178;6.376;2022-09-09T09:02:52;9.05;;;5.07;;
51792;SDS011;37850;53.178;6.376;2022-09-09T09:05:44;10.38;;;4.45;;
51792;SDS011;37850;53.178;6.376;2022-09-09T09:11:03;11.93;;;4.68;;
51792;SDS011;37850;53.178;6.376;2022-09-09T09:16:19;10.98;;;4.50;;
51792;SDS011;37850;53.178;6.376;2022-09-09T09:18:51;14.77;;;4.63;;
51792;SDS011;37850;53.178;6.376;2022-09-09T09:21:28;11.57;;;4.78;;
51792;SDS011;37850;53.178;6.376;2022-09-09T09:24:07;13.77;;;3.85;;
51792;SDS011;37850;53.178;6.376;2022-09-09T09:26:41;12.70;;;3.85;;
51792;SDS011;37850;53.178;6.376;2022-09-09T09:29:12;15.27;;;4.00;;
51792;SDS011;37850;53.178;6.376;2022-09-09T09:31:58;11.45;;;3.60;;
51792;SDS011;37850;53.178;6.376;2022-09-09T09:34:28;12.55;;;3.28;;
51792;SDS011;37850;53.178;6.376;2022-09-09T09:36:55;10.40;;;3.00;;
51792;SDS011;37850;53.178;6.376;2022-09-09T09:39:26;10.13;;;3.30;;
51792;SDS011;37850;53.178;6.376;2022-09-09T09:41:54;8.57;;;2.92;;
51792;SDS011;37850;53.178;6.376;2022-09-09T09:44:27;8.27;;;2.85;;
51792;SDS011;37850;53.178;6.376;2022-09-09T09:49:53;10.38;;;3.05;;
51792;SDS011;37850;53.178;6.376;2022-09-09T09:52:28;10.55;;;3.25;;
51792;SDS011;37850;53.178;6.376;2022-09-09T09:54:55;14.27;;;3.45;;
51792;SDS011;37850;53.178;6.376;2022-09-09T09:57:24;11.15;;;2.75;;
51792;SDS011;37850;53.178;6.376;2022-09-09T10:00:27;11.80;;;3.00;;
51792;SDS011;37850;53.178;6.376;2022-09-09T10:02:48;12.40;;;2.75;;
51792;SDS011;37850;53.178;6.376;2022-09-09T10:05:23;12.95;;;2.58;;
51792;SDS011;37850;53.178;6.376;2022-09-09T10:13:24;12.32;;;3.03;;
51792;SDS011;37850;53.178;6.376;2022-09-09T10:16:20;12.15;;;3.15;;
51792;SDS011;37850;53.178;6.376;2022-09-09T10:19:01;12.85;;;2.55;;
51792;SDS011;37850;53.178;6.376;2022-09-09T10:21:32;8.90;;;2.85;;
51792;SDS011;37850;53.178;6.376;2022-09-09T10:42:46;10.18;;;2.72;;
51792;SDS011;37850;53.178;6.376;2022-09-09T10:45:17;11.80;;;2.83;;
51792;SDS011;37850;53.178;6.376;2022-09-09T10:47:55;7.35;;;2.17;;
51792;SDS011;37850;53.178;6.376;2022-09-09T10:53:08;7.43;;;2.10;;
51792;SDS011;37850;53.178;6.376;2022-09-09T10:55:58;8.32;;;1.65;;
51792;SDS011;37850;53.178;6.376;2022-09-09T10:58:56;10.07;;;1.83;;
51792;SDS011;37850;53.178;6.376;2022-09-09T11:01:31;11.32;;;2.58;;
51792;SDS011;37850;53.178;6.376;2022-09-09T11:06:37;7.90;;;2.10;;
51792;SDS011;37850;53.178;6.376;2022-09-09T11:09:08;8.90;;;2.10;;
51792;SDS011;37850;53.178;6.376;2022-09-09T11:11:44;6.30;;;1.42;;
51792;SDS011;37850;53.178;6.376;2022-09-09T11:14:19;13.27;;;2.70;;
51792;SDS011;37850;53.178;6.376;2022-09-09T11:17:03;11.88;;;2.13;;
51792;SDS011;37850;53.178;6.376;2022-09-09T11:19:38;14.18;;;2.92;;
51792;SDS011;37850;53.178;6.376;2022-09-09T11:38:27;8.68;;;1.70;;
51792;SDS011;37850;53.178;6.376;2022-09-09T11:41:01;7.93;;;1.88;;
51792;SDS011;37850;53.178;6.376;2022-09-09T11:43:32;11.93;;;2.00;;
51792;SDS011;37850;53.178;6.376;2022-09-09T11:46:05;6.20;;;1.58;;
51792;SDS011;37850;53.178;6.376;2022-09-09T11:48:37;10.90;;;1.90;;
51792;SDS011;37850;53.178;6.376;2022-09-09T11:51:12;11.15;;;1.73;;
51792;SDS011;37850;53.178;6.376;2022-09-09T11:53:54;7.13;;;1.63;;
51792;SDS011;37850;53.178;6.376;2022-09-09T11:56:25;8.15;;;1.65;;
51792;SDS011;37850;53.178;6.376;2022-09-09T11:59:06;9.07;;;1.55;;
51792;SDS011;37850;53.178;6.376;2022-09-09T12:01:45;8.32;;;1.80;;
51792;SDS011;37850;53.178;6.376;2022-09-09T12:14:37;9.57;;;1.73;;
51792;SDS011;37850;53.178;6.376;2022-09-09T12:19:41;10.93;;;1.70;;
51792;SDS011;37850;53.178;6.376;2022-09-09T12:32:22;10.98;;;1.58;;
51792;SDS011;37850;53.178;6.376;2022-09-09T12:34:52;8.32;;;2.15;;
51792;SDS011;37850;53.178;6.376;2022-09-09T12:37:34;8.88;;;1.45;;
51792;SDS011;37850;53.178;6.376;2022-09-09T12:42:46;13.98;;;2.75;;
51792;SDS011;37850;53.178;6.376;2022-09-09T12:45:15;6.75;;;1.77;;
51792;SDS011;37850;53.178;6.376;2022-09-09T12:47:44;10.00;;;1.92;;
51792;SDS011;37850;53.178;6.376;2022-09-09T12:50:25;9.15;;;2.22;;
51792;SDS011;37850;53.178;6.376;2022-09-09T12:52:55;9.75;;;1.88;;
51792;SDS011;37850;53.178;6.376;2022-09-09T12:55:58;7.72;;;1.48;;
51792;SDS011;37850;53.178;6.376;2022-09-09T12:58:27;11.48;;;1.77;;
51792;SDS011;37850;53.178;6.376;2022-09-09T13:00:57;8.82;;;1.48;;
51792;SDS011;37850;53.178;6.376;2022-09-09T13:03:25;9.30;;;2.17;;
51792;SDS011;37850;53.178;6.376;2022-09-09T13:05:51;8.43;;;1.45;;
51792;SDS011;37850;53.178;6.376;2022-09-09T13:08:19;9.80;;;1.98;;
51792;SDS011;37850;53.178;6.376;2022-09-09T13:10:50;6.20;;;1.30;;
51792;SDS011;37850;53.178;6.376;2022-09-09T13:13:30;6.20;;;1.17;;
51792;SDS011;37850;53.178;6.376;2022-09-09T13:16:06;9.98;;;1.75;;
51792;SDS011;37850;53.178;6.376;2022-09-09T13:18:43;8.90;;;2.03;;
51792;SDS011;37850;53.178;6.376;2022-09-09T13:21:09;7.10;;;1.40;;
51792;SDS011;37850;53.178;6.376;2022-09-09T13:23:35;10.35;;;1.55;;
51792;SDS011;37850;53.178;6.376;2022-09-09T13:28:52;5.25;;;1.40;;
51792;SDS011;37850;53.178;6.376;2022-09-09T13:31:20;6.13;;;1.13;;
51792;SDS011;37850;53.178;6.376;2022-09-09T13:34:10;7.60;;;1.40;;
51792;SDS011;37850;53.178;6.376;2022-09-09T13:36:37;5.90;;;1.17;;
51792;SDS011;37850;53.178;6.376;2022-09-09T13:39:13;9.13;;;1.50;;
51792;SDS011;37850;53.178;6.376;2022-09-09T13:41:43;7.60;;;1.58;;
51792;SDS011;37850;53.178;6.376;2022-09-09T13:44:17;7.05;;;1.40;;
51792;SDS011;37850;53.178;6.376;2022-09-09T13:49:41;7.85;;;1.63;;
51792;SDS011;37850;53.178;6.376;2022-09-09T13:52:14;6.57;;;1.55;;
51792;SDS011;37850;53.178;6.376;2022-09-09T13:54:51;8.27;;;1.60;;
51792;SDS011;37850;53.178;6.376;2022-09-09T13:59:46;6.90;;;1.35;;
51792;SDS011;37850;53.178;6.376;2022-09-09T14:02:13;5.95;;;1.23;;
51792;SDS011;37850;53.178;6.376;2022-09-09T14:04:40;10.02;;;1.90;;
51792;SDS011;37850;53.178;6.376;2022-09-09T14:07:09;7.65;;;1.60;;
51792;SDS011;37850;53.178;6.376;2022-09-09T14:09:40;7.18;;;1.45;;
51792;SDS011;37850;53.178;6.376;2022-09-09T14:12:12;8.38;;;1.42;;
51792;SDS011;37850;53.178;6.376;2022-09-09T14:14:40;5.00;;;1.10;;
51792;SDS011;37850;53.178;6.376;2022-09-09T14:17:07;7.93;;;1.30;;
51792;SDS011;37850;53.178;6.376;2022-09-09T14:19:33;6.43;;;1.38;;
51792;SDS011;37850;53.178;6.376;2022-09-09T14:21:59;4.68;;;1.08;;
51792;SDS011;37850;53.178;6.376;2022-09-09T14:24:26;2.83;;;0.70;;
51792;SDS011;37850;53.178;6.376;2022-09-09T14:26:53;4.22;;;0.70;;
51792;SDS011;37850;53.178;6.376;2022-09-09T14:29:19;4.05;;;1.00;;
51792;SDS011;37850;53.178;6.376;2022-09-09T14:31:44;3.47;;;0.77;;
51792;SDS011;37850;53.178;6.376;2022-09-09T14:34:10;6.88;;;1.20;;
51792;SDS011;37850;53.178;6.376;2022-09-09T14:36:36;5.95;;;1.42;;
51792;SDS011;37850;53.178;6.376;2022-09-09T14:39:03;5.32;;;0.90;;
51792;SDS011;37850;53.178;6.376;2022-09-09T14:41:29;4.50;;;1.10;;
51792;SDS011;37850;53.178;6.376;2022-09-09T14:43:55;6.13;;;1.00;;
51792;SDS011;37850;53.178;6.376;2022-09-09T14:46:22;4.40;;;0.80;;
51792;SDS011;37850;53.178;6.376;2022-09-09T14:48:48;4.65;;;0.80;;
51792;SDS011;37850;53.178;6.376;2022-09-09T14:51:15;4.65;;;1.40;;
51792;SDS011;37850;53.178;6.376;2022-09-09T14:53:47;6.75;;;1.73;;
51792;SDS011;37850;53.178;6.376;2022-09-09T14:56:16;6.07;;;1.30;;
51792;SDS011;37850;53.178;6.376;2022-09-09T14:58:43;6.25;;;1.20;;
51792;SDS011;37850;53.178;6.376;2022-09-09T15:01:17;6.70;;;1.40;;
51792;SDS011;37850;53.178;6.376;2022-09-09T15:03:48;4.15;;;1.20;;
51792;SDS011;37850;53.178;6.376;2022-09-09T15:06:16;5.85;;;1.50;;
51792;SDS011;37850;53.178;6.376;2022-09-09T15:08:44;5.18;;;1.20;;
51792;SDS011;37850;53.178;6.376;2022-09-09T15:11:10;7.60;;;1.45;;
51792;SDS011;37850;53.178;6.376;2022-09-09T15:13:38;4.82;;;1.15;;
51792;SDS011;37850;53.178;6.376;2022-09-09T15:16:10;4.63;;;1.30;;
51792;SDS011;37850;53.178;6.376;2022-09-09T15:18:37;2.22;;;0.85;;
51792;SDS011;37850;53.178;6.376;2022-09-09T15:21:17;5.88;;;1.90;;
51792;SDS011;37850;53.178;6.376;2022-09-09T15:23:44;4.60;;;1.05;;
51792;SDS011;37850;53.178;6.376;2022-09-09T15:26:11;7.97;;;1.15;;
51792;SDS011;37850;53.178;6.376;2022-09-09T15:28:39;4.95;;;1.20;;
51792;SDS011;37850;53.178;6.376;2022-09-09T15:31:15;5.40;;;1.20;;
51792;SDS011;37850;53.178;6.376;2022-09-09T15:33:47;4.15;;;0.75;;
51792;SDS011;37850;53.178;6.376;2022-09-09T15:36:24;4.88;;;1.15;;
51792;SDS011;37850;53.178;6.376;2022-09-09T15:38:51;5.88;;;1.23;;
51792;SDS011;37850;53.178;6.376;2022-09-09T15:41:18;5.90;;;1.50;;
51792;SDS011;37850;53.178;6.376;2022-09-09T15:43:46;5.78;;;1.00;;
51792;SDS011;37850;53.178;6.376;2022-09-09T15:46:22;4.35;;;1.20;;
51792;SDS011;37850;53.178;6.376;2022-09-09T15:48:53;7.30;;;1.23;;
51792;SDS011;37850;53.178;6.376;2022-09-09T15:51:24;6.03;;;1.38;;
51792;SDS011;37850;53.178;6.376;2022-09-09T15:53:55;4.68;;;1.38;;
51792;SDS011;37850;53.178;6.376;2022-09-09T15:56:22;4.97;;;1.17;;
51792;SDS011;37850;53.178;6.376;2022-09-09T15:58:48;5.43;;;1.52;;
51792;SDS011;37850;53.178;6.376;2022-09-09T16:01:14;5.55;;;1.48;;
51792;SDS011;37850;53.178;6.376;2022-09-09T16:03:42;11.02;;;1.80;;
51792;SDS011;37850;53.178;6.376;2022-09-09T16:06:10;6.90;;;1.80;;
51792;SDS011;37850;53.178;6.376;2022-09-09T16:08:37;6.70;;;1.77;;
51792;SDS011;37850;53.178;6.376;2022-09-09T16:11:08;6.55;;;1.50;;
51792;SDS011;37850;53.178;6.376;2022-09-09T16:13:35;7.60;;;2.35;;
51792;SDS011;37850;53.178;6.376;2022-09-09T16:16:02;5.30;;;1.60;;
51792;SDS011;37850;53.178;6.376;2022-09-09T16:18:33;5.03;;;1.75;;
51792;SDS011;37850;53.178;6.376;2022-09-09T16:21:00;7.82;;;1.90;;
51792;SDS011;37850;53.178;6.376;2022-09-09T16:23:26;5.10;;;1.50;;
51792;SDS011;37850;53.178;6.376;2022-09-09T16:25:55;5.70;;;1.70;;
51792;SDS011;37850;53.178;6.376;2022-09-09T16:28:21;5.25;;;2.08;;
51792;SDS011;37850;53.178;6.376;2022-09-09T16:30:47;6.45;;;2.15;;
51792;SDS011;37850;53.178;6.376;2022-09-09T16:33:13;6.13;;;1.73;;
51792;SDS011;37850;53.178;6.376;2022-09-09T16:35:42;6.85;;;2.08;;
51792;SDS011;37850;53.178;6.376;2022-09-09T16:38:08;4.32;;;1.48;;
51792;SDS011;37850;53.178;6.376;2022-09-09T16:40:34;4.35;;;1.63;;
51792;SDS011;37850;53.178;6.376;2022-09-09T16:43:01;6.65;;;1.80;;
51792;SDS011;37850;53.178;6.376;2022-09-09T16:45:27;4.25;;;1.30;;
51792;SDS011;37850;53.178;6.376;2022-09-09T16:47:54;4.75;;;1.73;;
51792;SDS011;37850;53.178;6.376;2022-09-09T16:50:19;4.45;;;1.50;;
51792;SDS011;37850;53.178;6.376;2022-09-09T16:52:45;6.45;;;1.60;;
51792;SDS011;37850;53.178;6.376;2022-09-09T16:55:11;7.35;;;1.90;;
51792;SDS011;37850;53.178;6.376;2022-09-09T16:57:36;5.82;;;1.92;;
51792;SDS011;37850;53.178;6.376;2022-09-09T17:00:03;10.45;;;1.75;;
51792;SDS011;37850;53.178;6.376;2022-09-09T17:02:31;4.35;;;1.40;;
51792;SDS011;37850;53.178;6.376;2022-09-09T17:04:57;4.65;;;1.48;;
51792;SDS011;37850;53.178;6.376;2022-09-09T17:07:24;5.10;;;1.08;;
51792;SDS011;37850;53.178;6.376;2022-09-09T17:09:50;4.35;;;1.33;;
51792;SDS011;37850;53.178;6.376;2022-09-09T17:12:16;5.60;;;1.33;;
51792;SDS011;37850;53.178;6.376;2022-09-09T17:14:42;3.38;;;1.33;;
51792;SDS011;37850;53.178;6.376;2022-09-09T17:17:08;4.82;;;1.27;;
51792;SDS011;37850;53.178;6.376;2022-09-09T17:19:33;5.63;;;1.40;;
51792;SDS011;37850;53.178;6.376;2022-09-09T17:21:59;4.18;;;1.20;;
51792;SDS011;37850;53.178;6.376;2022-09-09T17:24:28;4.65;;;1.52;;
51792;SDS011;37850;53.178;6.376;2022-09-09T17:26:54;4.18;;;1.42;;
51792;SDS011;37850;53.178;6.376;2022-09-09T17:29:20;5.28;;;1.60;;